Time;durP1;ratioP1;P1;durP2;ratioP2;P2;SDS_P1;SDS_P2;PMS_P1;PMS_P2;Temp;Humidity;BMP_temperature;BMP_pressure;BME280_temperature;BME280_humidity;BME280_pressure;Samples;Min_cycle;Max_cycle;Signal;HPM_P1;HPM_P2
2021/01/12 00:01:46;;;;;;;14.90;7.73;;;-0.40;66.50;;;0.02;59.12;97710.69;5103976;28;20052;-50
2021/01/12 00:04:14;;;;;;;11.67;6.60;;;-0.40;66.20;;;-0.01;59.02;97702.09;5103577;28;20334;-50
2021/01/12 00:06:42;;;;;;;13.20;7.37;;;-0.40;66.60;;;-0.02;59.24;97704.78;5103353;28;20048;-48
2021/01/12 00:09:09;;;;;;;11.73;6.53;;;-0.50;66.60;;;-0.03;58.93;97695.28;5103889;28;20239;-52
2021/01/12 00:11:37;;;;;;;10.67;7.57;;;-0.50;66.90;;;-0.04;59.14;97694.44;5103827;28;20044;-47
2021/01/12 00:14:04;;;;;;;13.97;7.10;;;-0.40;67.00;;;-0.02;59.71;97686.47;5103659;28;20042;-48
2021/01/12 00:16:31;;;;;;;13.00;6.87;;;-0.40;66.70;;;0.00;59.63;97684.63;5103131;28;20046;-48
2021/01/12 00:18:59;;;;;;;13.07;6.80;;;-0.40;66.80;;;0.02;59.09;97671.44;5103223;28;20052;-49
2021/01/12 00:21:26;;;;;;;13.67;7.93;;;-0.30;67.00;;;0.03;59.37;97668.72;5103598;28;20075;-47
2021/01/12 00:23:54;;;;;;;11.90;6.67;;;-0.30;66.80;;;0.04;58.75;97659.94;5103510;28;20056;-47
2021/01/12 00:26:21;;;;;;;14.37;7.17;;;-0.40;66.80;;;0.03;59.47;97660.03;5101169;28;20355;-47
2021/01/12 00:28:48;;;;;;;14.87;8.13;;;-0.40;66.60;;;0.02;59.44;97659.19;5103047;28;20051;-49
2021/01/12 00:31:16;;;;;;;14.17;7.77;;;-0.40;66.60;;;0.03;59.46;97645.16;5103098;28;20058;-47
2021/01/12 00:33:43;;;;;;;14.47;7.27;;;-0.40;66.50;;;0.02;59.24;97643.50;5103275;28;20048;-51
2021/01/12 00:36:11;;;;;;;13.13;7.37;;;-0.40;66.50;;;0.04;59.59;97648.59;5102954;28;20052;-48
2021/01/12 00:38:38;;;;;;;16.40;8.80;;;-0.30;66.40;;;0.05;59.28;97640.66;5103354;28;20048;-49
2021/01/12 00:41:06;;;;;;;15.70;9.27;;;-0.30;66.50;;;0.04;58.76;97636.38;5103241;28;20044;-47
2021/01/12 00:43:34;;;;;;;16.60;8.57;;;-0.30;66.20;;;0.04;58.85;97625.91;5103192;28;20268;-48
2021/01/12 00:46:05;;;;;;;15.93;8.43;;;-0.30;66.50;;;0.06;59.63;97634.50;5102650;28;20048;-47
2021/01/12 00:48:33;;;;;;;15.90;8.03;;;-0.30;66.20;;;0.09;58.68;97636.91;5103042;28;20043;-52
2021/01/12 00:51:01;;;;;;;15.23;7.80;;;-0.30;66.20;;;0.06;59.26;97637.13;5103098;28;20048;-47
2021/01/12 00:53:28;;;;;;;15.43;8.20;;;-0.30;66.40;;;0.08;59.10;97629.16;5101742;28;20056;-48
2021/01/12 00:55:56;;;;;;;15.97;7.83;;;-0.30;66.20;;;0.07;58.77;97633.56;5102305;28;20068;-48
2021/01/12 00:58:23;;;;;;;15.50;8.43;;;-0.30;66.60;;;0.07;59.50;97636.19;5102872;28;20046;-49
2021/01/12 01:00:50;;;;;;;15.30;8.87;;;-0.30;66.60;;;0.10;59.54;97641.22;5099365;28;20042;-50
2021/01/12 01:03:18;;;;;;;16.50;7.77;;;-0.30;66.50;;;0.11;58.89;97639.44;5103026;28;20051;-47
2021/01/12 01:05:45;;;;;;;15.13;8.37;;;-0.30;66.60;;;0.13;59.42;97635.78;5102353;28;20332;-48
2021/01/12 01:08:12;;;;;;;17.80;9.13;;;-0.20;66.60;;;0.14;58.86;97632.25;5102003;28;20054;-47
2021/01/12 01:10:40;;;;;;;15.17;8.60;;;-0.20;66.40;;;0.13;59.83;97624.47;5102627;28;20044;-48
2021/01/12 01:13:07;;;;;;;13.93;7.40;;;-0.30;66.80;;;0.13;59.08;97634.94;5101943;28;20058;-49
2021/01/12 01:15:35;;;;;;;15.03;7.43;;;-0.30;66.80;;;0.13;59.25;97635.78;5102122;28;20220;-48
2021/01/12 01:18:03;;;;;;;15.83;8.20;;;-0.20;66.60;;;0.13;59.77;97642.81;5102574;28;20055;-47
2021/01/12 01:20:30;;;;;;;15.30;7.37;;;-0.20;66.80;;;0.16;59.91;97645.25;5102550;28;20040;-47
2021/01/12 01:22:58;;;;;;;15.03;8.60;;;-0.20;66.70;;;0.17;59.87;97639.88;5102455;28;20052;-48
2021/01/12 01:25:25;;;;;;;15.10;8.07;;;-0.20;66.70;;;0.20;59.79;97641.50;5102067;28;20048;-48
2021/01/12 01:27:52;;;;;;;14.73;7.77;;;-0.10;66.80;;;0.21;59.38;97632.69;5100246;28;20047;-48
2021/01/12 01:30:21;;;;;;;12.70;7.63;;;-0.10;66.80;;;0.22;59.15;97647.47;5102196;28;20052;-49
2021/01/12 01:32:48;;;;;;;17.57;8.47;;;-0.10;66.80;;;0.23;59.23;97648.31;5102344;28;20052;-48
2021/01/12 01:35:16;;;;;;;15.00;7.70;;;-0.10;66.80;;;0.23;59.33;97645.69;5101720;28;20048;-48
2021/01/12 01:37:54;;;;;;;14.63;8.07;;;-0.10;66.90;;;0.23;59.08;97635.22;5102482;28;20058;-47
2021/01/12 01:40:23;;;;;;;14.43;7.87;;;-0.10;66.90;;;0.25;59.67;97641.19;5101929;28;20248;-49
2021/01/12 01:42:51;;;;;;;15.60;8.03;;;-0.10;67.00;;;0.26;59.80;97633.25;5102239;28;20048;-51
2021/01/12 01:45:18;;;;;;;14.97;7.83;;;-0.10;66.80;;;0.28;59.94;97627.91;5100772;28;20244;-49
2021/01/12 01:47:46;;;;;;;11.43;6.90;;;-0.10;66.90;;;0.28;59.69;97618.28;5102131;28;20042;-49
2021/01/12 01:50:23;;;;;;;14.77;8.10;;;-0.10;66.80;;;0.28;59.08;97602.56;5101029;28;20074;-50
2021/01/12 01:52:53;;;;;;;14.13;7.73;;;0.00;66.60;;;0.30;59.49;97594.63;5102189;28;20058;-47
2021/01/12 01:55:23;;;;;;;15.67;8.20;;;0.00;66.50;;;0.30;59.10;97595.44;5099572;28;20036;-51
2021/01/12 01:57:51;;;;;;;15.27;7.47;;;0.00;66.20;;;0.29;59.14;97590.31;5101481;28;20036;-48
2021/01/12 02:00:20;;;;;;;14.90;7.87;;;0.00;65.60;;;0.31;58.97;97576.19;5101328;28;20054;-47
2021/01/12 02:03:09;;;;;;;15.43;7.67;;;0.00;66.50;;;0.33;59.50;97576.06;5101431;28;20327;-49
2021/01/12 02:05:41;;;;;;;15.27;7.97;;;0.00;66.30;;;0.32;59.56;97572.63;5099030;28;20044;-47
2021/01/12 02:08:21;;;;;;;12.93;7.90;;;0.00;66.10;;;0.34;58.90;97565.50;5101427;28;20366;-49
2021/01/12 02:10:51;;;;;;;13.07;7.43;;;0.10;66.30;;;0.37;59.53;97567.94;5100250;28;20055;-49
2021/01/12 02:13:23;;;;;;;14.40;7.67;;;0.10;66.30;;;0.38;59.24;97566.97;5100337;28;20051;-48
2021/01/12 02:15:57;;;;;;;13.67;8.00;;;0.10;66.00;;;0.39;59.35;97560.81;5100783;28;20040;-49
2021/01/12 02:18:27;;;;;;;16.33;7.63;;;0.10;66.20;;;0.39;59.02;97554.75;5096665;28;20244;-50
2021/01/12 02:21:01;;;;;;;;;;;0.00;67.30;;;0.37;59.09;97552.22;5105252;28;20179;-47
2021/01/12 02:23:34;;;;;;;12.80;6.67;;;0.00;66.40;;;0.39;59.37;97542.47;5104693;28;19915;-49
2021/01/12 02:26:03;;;;;;;17.75;9.32;;;0.10;67.00;;;0.39;59.80;97550.34;5105317;28;20044;-48
2021/01/12 02:28:30;;;;;;;14.43;7.17;;;0.00;67.10;;;0.41;59.47;97542.38;5105756;28;20340;-51
2021/01/12 02:30:58;;;;;;;11.47;6.83;;;0.00;67.10;;;0.42;58.96;97541.44;5105668;28;20032;-47
2021/01/12 02:33:25;;;;;;;13.43;6.70;;;0.10;67.20;;;0.43;59.20;97539.63;5105637;28;20048;-47
2021/01/12 02:35:54;;;;;;;10.57;6.43;;;0.10;67.20;;;0.46;59.57;97534.22;5105000;28;20051;-47
2021/01/12 02:38:22;;;;;;;15.63;7.50;;;0.10;67.00;;;0.48;59.12;97533.16;5104320;28;20051;-48
2021/01/12 02:40:50;;;;;;;12.07;6.60;;;0.20;67.00;;;0.49;59.33;97531.41;5105430;28;20047;-47
2021/01/12 02:43:17;;;;;;;14.30;6.83;;;0.20;66.90;;;0.49;59.94;97529.63;5105112;28;20051;-48
2021/01/12 02:45:45;;;;;;;12.63;7.53;;;0.20;67.10;;;0.52;59.65;97523.31;5105063;28;20054;-48
2021/01/12 02:48:12;;;;;;;16.33;7.77;;;0.20;67.20;;;0.54;59.74;97513.59;5105416;28;20047;-47
2021/01/12 02:50:39;;;;;;;11.13;6.03;;;0.20;67.20;;;0.55;59.75;97505.63;5105268;28;20048;-48
2021/01/12 02:53:07;;;;;;;9.90;5.73;;;0.20;67.30;;;0.56;60.14;97504.69;5105303;28;20055;-48
2021/01/12 02:55:34;;;;;;;11.03;6.07;;;0.20;67.50;;;0.58;59.78;97502.81;5105101;28;20059;-48
2021/01/12 02:58:02;;;;;;;10.13;5.60;;;0.30;67.60;;;0.61;60.17;97495.69;5105333;28;20047;-47
2021/01/12 03:00:29;;;;;;;11.30;5.60;;;0.30;67.70;;;0.62;60.31;97497.34;5104255;28;20036;-49
2021/01/12 03:02:57;;;;;;;11.13;5.60;;;0.30;67.80;;;0.62;59.51;97490.34;5105036;28;20051;-47
2021/01/12 03:05:24;;;;;;;9.27;4.90;;;0.30;67.90;;;0.65;59.72;97484.06;5104757;28;20363;-52
2021/01/12 03:07:53;;;;;;;10.63;5.83;;;0.40;67.90;;;0.66;60.19;97481.34;5105146;28;20052;-50
2021/01/12 03:10:21;;;;;;;10.87;5.30;;;0.40;67.90;;;0.66;60.10;97473.47;5105736;27;20058;-50
2021/01/12 03:12:48;;;;;;;8.40;5.00;;;0.40;68.00;;;0.67;60.13;97467.28;5104988;28;20052;-48
2021/01/12 03:15:15;;;;;;;10.27;5.90;;;0.40;68.00;;;0.70;60.11;97468.84;5104344;28;20050;-47
2021/01/12 03:17:43;;;;;;;9.67;5.50;;;0.40;68.00;;;0.71;59.87;97460.88;5104987;28;20046;-47
2021/01/12 03:20:11;;;;;;;11.30;5.90;;;0.40;68.00;;;0.74;59.82;97460.69;5104889;28;20044;-48
2021/01/12 03:22:41;;;;;;;9.90;5.60;;;0.50;68.20;;;0.76;60.38;97450.94;5104858;28;20050;-48
2021/01/12 03:25:09;;;;;;;8.13;4.97;;;0.50;68.00;;;0.78;59.73;97448.22;5104285;28;20056;-48
2021/01/12 03:27:37;;;;;;;9.83;5.67;;;0.50;68.00;;;0.78;59.51;97446.44;5104780;28;20247;-47
2021/01/12 03:30:05;;;;;;;8.97;5.47;;;0.50;67.80;;;0.80;60.52;97443.72;5104777;28;20056;-47
2021/01/12 03:32:33;;;;;;;8.97;5.33;;;0.50;67.70;;;0.80;60.05;97438.47;5104584;28;20050;-48
2021/01/12 03:35:00;;;;;;;11.90;5.37;;;0.50;67.80;;;0.78;59.59;97433.31;5104110;28;20062;-47
2021/01/12 03:37:27;;;;;;;10.13;5.77;;;0.50;68.00;;;0.80;60.32;97427.16;5104568;28;20058;-49
2021/01/12 03:39:55;;;;;;;12.30;6.70;;;0.50;68.10;;;0.80;59.88;97422.75;5104525;28;20240;-48
2021/01/12 03:42:22;;;;;;;11.27;6.23;;;0.50;67.90;;;0.81;60.42;97418.34;5104465;28;20236;-49
2021/01/12 03:44:49;;;;;;;13.60;5.63;;;0.50;68.00;;;0.82;59.88;97418.22;5103986;28;20062;-48
2021/01/12 03:47:17;;;;;;;10.50;6.07;;;0.60;67.90;;;0.84;60.71;97418.97;5104604;28;20070;-50
2021/01/12 03:49:45;;;;;;;11.07;6.63;;;0.50;68.00;;;0.82;60.17;97410.38;5104303;28;20052;-47
2021/01/12 03:52:12;;;;;;;9.73;6.23;;;0.50;68.10;;;0.81;60.30;97400.00;5104277;28;20061;-47
2021/01/12 03:54:40;;;;;;;12.13;5.70;;;0.50;68.40;;;0.79;60.46;97397.47;5104124;28;20058;-49
2021/01/12 03:57:07;;;;;;;13.00;6.30;;;0.50;68.50;;;0.82;60.72;97392.03;5103910;28;20048;-46
2021/01/12 03:59:34;;;;;;;8.87;4.93;;;0.50;68.60;;;0.81;60.76;97392.13;5104163;28;20362;-46
2021/01/12 04:02:02;;;;;;;9.47;4.77;;;0.50;68.80;;;0.82;60.85;97381.53;5104204;28;20356;-47
2021/01/12 04:04:29;;;;;;;10.30;5.37;;;0.50;68.80;;;0.83;60.49;97390.22;5103965;28;20044;-52
2021/01/12 04:06:57;;;;;;;10.83;5.53;;;0.50;68.90;;;0.82;60.76;97381.53;5103505;28;20046;-46
2021/01/12 04:09:24;;;;;;;10.90;6.07;;;0.50;69.10;;;0.84;60.27;97389.31;5103707;28;20051;-46
2021/01/12 04:11:52;;;;;;;8.77;5.53;;;0.50;69.30;;;0.83;60.70;97391.06;5103703;28;20217;-46
2021/01/12 04:14:20;;;;;;;10.67;5.37;;;0.60;69.60;;;0.80;61.09;97377.38;5103714;28;20048;-46
2021/01/12 04:16:50;;;;;;;8.73;5.10;;;0.50;70.30;;;0.80;61.30;97372.94;5103248;28;20052;-46
2021/01/12 04:19:17;;;;;;;8.33;4.63;;;0.50;70.50;;;0.80;61.37;97378.19;5103902;28;20243;-46
2021/01/12 04:21:45;;;;;;;10.77;5.57;;;0.50;70.90;;;0.82;61.58;97365.00;5103940;28;20245;-47
2021/01/12 04:24:12;;;;;;;8.23;5.40;;;0.50;71.00;;;0.84;61.32;97350.00;5103933;28;20058;-47
2021/01/12 04:26:39;;;;;;;6.67;4.10;;;0.60;71.20;;;0.85;61.15;97344.63;5103096;28;20048;-48
2021/01/12 04:29:06;;;;;;;8.77;4.70;;;0.60;71.10;;;0.88;62.21;97351.44;5101317;28;20044;-46
2021/01/12 04:31:34;;;;;;;9.50;4.90;;;0.60;71.40;;;0.90;62.37;97349.56;5103779;28;20055;-47
2021/01/12 04:34:01;;;;;;;10.20;4.97;;;0.60;71.70;;;0.90;61.99;97352.19;5103394;28;20044;-48
2021/01/12 04:36:28;;;;;;;9.17;4.60;;;0.70;71.70;;;0.93;62.14;97349.31;5102743;28;20248;-47
2021/01/12 04:38:56;;;;;;;9.03;5.37;;;0.70;71.60;;;0.96;62.11;97343.88;5103358;28;20044;-49
2021/01/12 04:41:23;;;;;;;6.77;4.30;;;0.80;71.50;;;0.96;62.14;97339.47;5102036;28;20054;-47
2021/01/12 04:43:50;;;;;;;11.23;4.63;;;0.80;71.70;;;1.01;62.16;97340.91;5102719;28;20047;-47
2021/01/12 04:46:18;;;;;;;7.47;4.53;;;0.80;71.70;;;1.02;61.80;97342.59;5102700;28;20047;-50
2021/01/12 04:48:47;;;;;;;8.73;5.10;;;0.80;71.70;;;1.02;62.32;97338.19;5103369;28;20052;-47
2021/01/12 04:51:16;;;;;;;8.23;4.30;;;0.80;71.80;;;1.06;62.41;97341.44;5101847;28;20052;-47
2021/01/12 04:53:48;;;;;;;9.53;4.93;;;0.80;72.00;;;1.09;62.84;97333.38;5103129;28;20217;-47
2021/01/12 04:56:17;;;;;;;8.10;4.97;;;0.80;72.00;;;1.13;61.92;97326.94;5102988;28;20052;-46
2021/01/12 04:58:47;;;;;;;10.83;4.50;;;0.90;72.10;;;1.16;62.44;97322.31;5103628;27;20062;-46
2021/01/12 05:01:18;;;;;;;8.03;4.33;;;0.90;72.10;;;1.16;62.44;97322.31;5101856;28;20082;-47
2021/01/12 05:03:51;;;;;;;6.40;4.50;;;0.90;72.60;;;1.20;62.24;97324.72;5101614;28;20044;-48
2021/01/12 05:06:25;;;;;;;7.55;3.70;;;0.90;72.50;;;1.20;62.43;97311.59;5102593;28;20118;-46
2021/01/12 05:08:55;;;;;;;6.93;3.58;;;1.00;72.80;;;1.20;62.99;97307.19;5102874;28;20056;-50
2021/01/12 05:11:33;;;;;;;6.53;3.80;;;1.00;72.90;;;1.23;63.03;97301.72;5102687;28;20062;-46
2021/01/12 05:14:08;;;;;;;6.83;3.80;;;1.00;73.10;;;1.26;63.06;97295.41;5102623;28;20047;-49
2021/01/12 05:16:55;;;;;;;7.30;4.07;;;1.00;72.80;;;1.25;64.30;97299.81;5101888;28;20048;-46
2021/01/12 05:19:29;;;;;;;7.40;3.73;;;1.10;73.50;;;1.29;63.32;97296.03;5102968;28;20044;-50
2021/01/12 05:22:08;;;;;;;9.30;4.10;;;1.10;73.00;;;1.30;63.27;97284.59;5102564;28;20051;-47
2021/01/12 05:24:45;;;;;;;6.07;3.57;;;1.10;73.20;;;1.34;62.78;97291.28;5102417;28;20048;-49
2021/01/12 05:27:13;;;;;;;6.13;3.33;;;1.20;73.20;;;1.35;62.84;97286.88;5102420;28;20052;-47
2021/01/12 05:29:41;;;;;;;7.00;3.80;;;1.20;73.50;;;1.39;63.13;97283.06;5103043;28;20048;-46
2021/01/12 05:32:11;;;;;;;7.57;4.03;;;1.20;73.40;;;1.40;62.97;97276.91;5116978;22;20351;-42
2021/01/12 05:34:39;;;;;;;7.30;3.53;;;1.20;73.30;;;1.43;62.93;97273.19;5100994;28;20054;-41
2021/01/12 05:37:08;;;;;;;8.07;4.17;;;1.20;73.10;;;1.45;62.94;97271.28;5101964;28;20054;-42
2021/01/12 05:39:41;;;;;;;8.97;4.47;;;1.30;73.00;;;1.47;63.18;97270.22;5101046;28;20251;-41
2021/01/12 05:42:11;;;;;;;7.50;3.90;;;1.30;73.10;;;1.49;62.73;97264.88;5101195;28;20078;-42
2021/01/12 05:44:41;;;;;;;6.60;3.80;;;1.30;73.30;;;1.49;63.18;97260.47;5101769;28;20362;-41
2021/01/12 05:47:15;;;;;;;6.60;4.17;;;1.30;73.50;;;1.52;63.44;97249.75;5102193;28;20243;-41
2021/01/12 05:49:46;;;;;;;6.00;2.90;;;1.30;73.80;;;1.54;64.13;97253.09;5102165;28;20052;-41
2021/01/12 05:52:13;;;;;;;14.07;8.07;;;1.40;74.20;;;1.56;63.32;97238.06;5101040;28;20055;-41
2021/01/12 05:55:04;;;;;;;10.53;6.03;;;1.40;74.30;;;1.62;63.42;97242.00;5099027;28;20055;-42
2021/01/12 05:57:38;;;;;;;6.57;3.83;;;1.40;76.10;;;1.65;64.40;97235.69;5102333;28;20051;-43
2021/01/12 06:00:06;;;;;;;8.68;6.10;;;1.50;75.20;;;1.67;64.64;97244.31;5100250;28;20094;-41
2021/01/12 06:02:42;;;;;;;6.10;2.37;;;1.50;76.60;;;1.69;65.37;97245.88;5099131;28;20054;-41
2021/01/12 06:05:10;;;;;;;3.93;2.40;;;1.60;76.60;;;1.73;64.74;97244.69;5100607;28;20048;-41
2021/01/12 06:07:38;;;;;;;3.87;2.10;;;1.60;77.00;;;1.75;64.72;97229.66;5100976;28;20048;-44
2021/01/12 06:10:09;;;;;;;6.03;3.20;;;1.60;76.40;;;1.77;65.47;97230.38;5083507;28;20348;-41
2021/01/12 06:12:41;;;;;;;3.83;2.13;;;1.70;77.30;;;1.79;65.40;97230.25;5100920;28;20069;-42
2021/01/12 06:15:15;;;;;;;5.67;2.30;;;1.70;77.30;;;1.82;66.23;97245.75;5100451;28;20078;-42
2021/01/12 06:17:44;;;;;;;3.08;1.80;;;1.70;77.70;;;1.86;65.71;97236.72;5100940;28;20047;-41
2021/01/12 06:20:16;;;;;;;5.97;2.60;;;1.80;77.20;;;1.91;64.95;97233.72;5101519;28;20058;-41
2021/01/12 06:22:55;;;;;;;23.33;8.70;;;1.80;78.10;;;1.94;65.58;97229.09;5101928;28;20052;-41
2021/01/12 06:25:23;;;;;;;18.87;8.17;;;1.90;77.20;;;1.93;67.11;97223.94;5100407;28;20044;-42
2021/01/12 06:27:51;;;;;;;10.73;5.27;;;1.90;78.00;;;1.95;65.86;97220.25;5101753;28;20056;-41
2021/01/12 06:30:19;;;;;;;5.60;2.30;;;1.90;77.90;;;1.98;65.76;97219.19;5100624;28;20058;-42
2021/01/12 06:32:46;;;;;;;5.23;2.57;;;1.90;77.20;;;1.99;65.83;97220.00;5101548;28;20048;-41
2021/01/12 06:35:14;;;;;;;7.43;4.43;;;1.90;77.50;;;1.98;65.94;97200.81;5100474;28;20243;-41
2021/01/12 06:37:43;;;;;;;5.83;2.83;;;1.90;77.90;;;1.99;65.64;97199.84;5101715;28;20044;-41
2021/01/12 06:40:12;;;;;;;10.27;5.67;;;1.90;77.40;;;2.03;65.97;97201.28;5101598;28;20044;-41
2021/01/12 06:42:40;;;;;;;7.27;3.73;;;1.90;77.30;;;2.02;66.44;97189.13;5099600;28;20235;-41
2021/01/12 06:45:09;;;;;;;10.33;7.17;;;1.90;77.60;;;2.06;66.18;97185.28;5101224;28;20213;-41
2021/01/12 06:47:38;;;;;;;4.57;2.87;;;1.90;77.30;;;2.05;65.82;97175.72;5100746;28;20048;-41
2021/01/12 06:50:14;;;;;;;4.53;2.97;;;1.90;77.60;;;2.08;66.36;97172.88;5099998;28;20343;-41
2021/01/12 06:52:44;;;;;;;4.00;2.60;;;2.00;77.30;;;2.10;65.38;97172.75;5101468;28;20054;-43
2021/01/12 06:55:15;;;;;;;5.40;2.77;;;1.90;77.30;;;2.09;66.15;97176.31;5101122;28;20047;-42
2021/01/12 06:57:50;;;;;;;9.73;4.87;;;1.90;77.20;;;2.08;66.11;97172.03;5100367;28;20054;-42
2021/01/12 07:00:22;;;;;;;69.97;28.83;;;1.90;77.20;;;2.08;66.09;97165.00;5100466;28;20044;-41
2021/01/12 07:03:01;;;;;;;25.50;10.40;;;1.90;77.20;;;2.09;65.97;97168.44;5099527;28;20046;-41
2021/01/12 07:05:39;;;;;;;6.27;3.17;;;2.00;77.50;;;2.11;65.75;97161.28;5099682;28;20050;-41
2021/01/12 07:08:12;;;;;;;7.17;3.50;;;1.90;77.20;;;2.09;65.70;97150.06;5105032;28;20237;-42
2021/01/12 07:10:45;;;;;;;20.77;10.07;;;1.90;77.10;;;2.13;65.35;97151.50;5103596;28;20059;-41
2021/01/12 07:13:13;;;;;;;16.30;8.60;;;1.90;77.10;;;2.15;65.90;97154.84;5103595;28;20348;-41
2021/01/12 07:15:49;;;;;;;7.57;3.20;;;1.90;76.80;;;2.14;65.67;97148.75;5102485;28;20369;-42
2021/01/12 07:18:30;;;;;;;6.50;3.73;;;1.90;76.70;;;2.13;65.97;97154.13;5103065;28;20050;-41
2021/01/12 07:20:58;;;;;;;7.17;3.57;;;1.90;76.50;;;2.13;65.22;97146.25;5104672;28;20043;-41
2021/01/12 07:23:35;;;;;;;9.33;4.10;;;1.90;76.50;;;2.13;65.77;97144.47;5104794;28;20212;-42
2021/01/12 07:26:04;;;;;;;16.20;8.70;;;1.90;76.60;;;2.12;64.93;97137.53;5104165;28;20487;-42
2021/01/12 07:28:33;;;;;;;10.87;6.77;;;1.90;76.80;;;2.11;65.36;97130.63;5103710;28;20048;-42
2021/01/12 07:31:00;;;;;;;10.50;5.63;;;1.90;76.60;;;2.10;65.85;97134.19;5102176;28;20263;-41
2021/01/12 07:33:31;;;;;;;8.57;5.43;;;1.90;76.80;;;2.08;66.30;97135.28;5104854;28;20044;-41
2021/01/12 07:35:59;;;;;;;6.07;2.83;;;1.80;77.50;;;2.07;65.38;97126.53;5103054;28;20058;-42
2021/01/12 07:38:29;;;;;;;7.43;3.20;;;1.90;77.50;;;2.08;65.93;97119.53;5104333;28;20052;-42
2021/01/12 07:41:00;;;;;;;5.83;3.13;;;1.80;77.70;;;2.07;66.16;97121.28;5084034;28;20062;-41
2021/01/12 07:43:28;;;;;;;4.93;3.00;;;1.80;78.00;;;2.09;66.25;97129.88;5099571;28;20044;-42
2021/01/12 07:46:01;;;;;;;6.30;3.23;;;1.90;78.10;;;2.11;65.91;97127.16;5083715;28;20378;-41
2021/01/12 07:48:30;;;;;;;4.93;2.77;;;1.90;77.80;;;2.12;66.39;97118.31;5083929;28;20213;-41
2021/01/12 07:51:01;;;;;;;4.07;2.33;;;1.90;77.70;;;2.14;66.03;97122.50;5099510;28;20055;-41
2021/01/12 07:53:33;;;;;;;5.00;2.60;;;2.00;78.20;;;2.14;66.67;97111.97;5083998;28;20049;-42
2021/01/12 07:56:03;;;;;;;5.70;2.83;;;2.00;77.80;;;2.15;66.98;97115.44;5083845;28;20059;-41
2021/01/12 07:58:31;;;;;;;3.17;1.90;;;2.00;78.20;;;2.12;66.79;97105.19;5083811;28;20047;-41
2021/01/12 08:00:59;;;;;;;3.77;2.13;;;2.00;78.60;;;2.14;66.29;97116.41;5080731;28;20060;-41
2021/01/12 08:03:37;;;;;;;4.00;2.17;;;2.00;78.30;;;2.16;66.64;97098.75;5097733;28;20051;-41
2021/01/12 08:06:05;;;;;;;3.23;2.00;;;2.00;78.10;;;2.20;66.49;97100.16;5082096;28;20048;-41
2021/01/12 08:08:32;;;;;;;4.63;2.23;;;2.10;78.20;;;2.21;66.63;97103.63;5086742;28;20235;-41
2021/01/12 08:11:00;;;;;;;3.67;1.90;;;2.10;78.10;;;2.23;67.00;97106.94;5103843;28;20244;-41
2021/01/12 08:13:27;;;;;;;3.67;1.83;;;2.10;78.00;;;2.25;66.90;97103.25;5119580;28;20044;-42
2021/01/12 08:15:55;;;;;;;2.63;1.70;;;2.20;77.90;;;2.28;66.83;97113.50;5102818;28;20048;-41
2021/01/12 08:18:22;;;;;;;2.50;1.70;;;2.20;77.90;;;2.29;67.06;97107.31;5102708;28;20043;-41
2021/01/12 08:20:58;;;;;;;2.93;2.07;;;2.20;78.00;;;2.34;66.36;97104.31;5103547;28;20050;-42
2021/01/12 08:23:26;;;;;;;2.00;1.30;;;2.20;77.90;;;2.34;66.73;97099.88;5103796;28;20039;-41
2021/01/12 08:25:53;;;;;;;2.10;1.10;;;2.30;78.00;;;2.35;66.99;97095.47;5102997;28;20048;-41
2021/01/12 08:28:21;;;;;;;1.83;1.10;;;2.30;78.00;;;2.38;67.17;97087.34;5103488;28;20048;-41
2021/01/12 08:30:48;;;;;;;1.73;1.23;;;2.30;78.00;;;2.41;66.53;97091.53;5103353;28;20048;-41
2021/01/12 08:33:35;;;;;;;1.70;0.93;;;2.30;77.70;;;2.45;66.77;97099.03;5103466;28;20048;-41
2021/01/12 08:36:11;;;;;;;1.43;0.70;;;2.40;77.80;;;2.39;67.23;97091.66;5101755;28;20050;-42
2021/01/12 08:38:43;;;;;;;1.27;0.70;;;2.40;78.20;;;2.47;66.62;97101.53;5102311;28;20050;-41
2021/01/12 08:41:11;;;;;;;0.87;0.67;;;2.40;77.90;;;2.51;67.06;97089.81;5102068;28;20051;-41
2021/01/12 08:43:40;;;;;;;1.60;0.90;;;2.50;77.80;;;2.54;67.03;97089.59;5102230;28;20239;-41
2021/01/12 08:46:08;;;;;;;1.13;0.63;;;2.50;77.60;;;2.58;66.71;97090.13;5101651;28;20039;-41
2021/01/12 08:48:35;;;;;;;1.13;0.87;;;2.50;78.40;;;2.59;66.77;97081.31;5101274;28;20108;-42
2021/01/12 08:51:17;;;;;;;1.63;0.90;;;2.50;78.10;;;2.60;67.47;97091.69;5101886;28;20044;-41
2021/01/12 08:53:46;;;;;;;1.00;0.90;;;2.60;78.00;;;2.65;66.64;97086.88;5102085;28;20050;-42
2021/01/12 08:56:14;;;;;;;0.60;0.47;;;2.60;77.60;;;2.69;66.65;97082.22;5102436;28;20048;-40
2021/01/12 08:58:43;;;;;;;1.00;0.70;;;2.60;77.70;;;2.70;67.08;97087.34;5102902;28;20048;-41
2021/01/12 09:01:14;;;;;;;2.10;0.90;;;2.60;77.70;;;2.70;66.84;97083.91;5101024;28;20051;-41
2021/01/12 09:03:42;;;;;;;1.23;0.93;;;2.60;78.00;;;2.75;66.75;97079.09;5101320;28;20048;-43
2021/01/12 09:06:19;;;;;;;1.27;1.00;;;2.70;77.70;;;2.78;66.98;97081.47;5102293;28;20054;-40
2021/01/12 09:08:47;;;;;;;1.10;0.67;;;2.70;78.10;;;2.72;67.28;97074.09;5092918;28;20044;-42
2021/01/12 09:11:15;;;;;;;1.13;0.50;;;2.60;78.30;;;2.74;67.02;97070.38;5101501;28;20048;-41
2021/01/12 09:13:45;;;;;;;1.43;0.80;;;2.70;78.50;;;2.76;67.01;97073.69;5073016;28;20056;-42
2021/01/12 09:16:20;;;;;;;0.87;0.70;;;2.60;78.40;;;2.75;66.82;97069.41;5079797;28;20044;-42
2021/01/12 09:18:48;;;;;;;1.70;0.93;;;2.60;78.70;;;2.74;66.88;97069.53;5080528;28;20041;-42
2021/01/12 09:21:22;;;;;;;1.10;0.97;;;2.60;78.80;;;2.74;67.03;97070.38;5080361;28;20053;-41
2021/01/12 09:23:50;;;;;;;2.47;0.60;;;2.60;79.30;;;2.73;67.27;97071.34;5092059;28;20052;-42
2021/01/12 09:26:20;;;;;;;1.20;0.70;;;2.60;79.70;;;2.72;67.61;97066.22;5115855;28;20051;-41
2021/01/12 09:28:50;;;;;;;0.93;0.87;;;2.50;79.80;;;2.72;67.57;97061.78;5100555;28;20044;-43
2021/01/12 09:31:18;;;;;;;5.93;0.97;;;2.50;80.10;;;2.73;67.75;97055.56;5100434;28;20073;-42
2021/01/12 09:33:52;;;;;;;0.77;0.63;;;2.50;79.80;;;2.74;67.06;97059.03;5100492;28;20044;-42
2021/01/12 09:36:32;;;;;;;0.70;0.43;;;2.60;80.00;;;2.72;67.71;97067.03;5100170;28;20054;-42
2021/01/12 09:39:08;;;;;;;1.03;0.70;;;2.50;80.80;;;2.67;67.27;97055.22;5101473;28;20055;-43
2021/01/12 09:41:35;;;;;;;1.07;0.70;;;2.40;80.50;;;2.62;67.90;97058.25;5100913;28;20052;-42
2021/01/12 09:44:03;;;;;;;0.80;0.60;;;2.40;81.70;;;2.64;67.89;97053.69;5100034;28;20252;-42
2021/01/12 09:46:30;;;;;;;0.80;0.50;;;2.40;80.90;;;2.63;68.39;97059.06;5101125;28;20048;-42
2021/01/12 09:48:58;;;;;;;1.00;0.63;;;2.40;81.20;;;2.62;67.64;97042.47;5101030;28;20070;-42
2021/01/12 09:51:26;;;;;;;0.80;0.57;;;2.40;81.10;;;2.62;68.11;97053.00;5100869;28;20043;-42
2021/01/12 09:53:53;;;;;;;1.67;0.60;;;2.40;82.20;;;2.58;68.41;97050.72;5101930;28;20239;-42
2021/01/12 09:56:21;;;;;;;0.93;0.60;;;2.30;81.50;;;2.59;68.43;97044.53;5101384;28;20055;-42
2021/01/12 09:58:51;;;;;;;1.03;0.60;;;2.30;81.70;;;2.56;68.59;97042.97;5101227;28;20062;-43
2021/01/12 10:01:19;;;;;;;0.70;0.50;;;2.40;81.80;;;2.55;68.31;97038.69;5100810;28;20051;-43
2021/01/12 10:03:48;;;;;;;1.00;0.83;;;2.40;81.80;;;2.58;67.92;97040.22;5100013;28;20048;-44
2021/01/12 10:06:21;;;;;;;1.23;0.70;;;2.40;81.70;;;2.58;68.83;97038.44;5099638;28;20054;-42
2021/01/12 10:08:49;;;;;;;0.88;0.63;;;2.40;82.10;;;2.59;68.23;97031.38;5102540;28;20047;-42
2021/01/12 10:11:17;;;;;;;0.60;0.60;;;2.40;81.70;;;2.60;68.34;97033.88;5101061;28;20052;-42
2021/01/12 10:13:45;;;;;;;2.50;1.00;;;2.40;81.60;;;2.57;68.59;97028.88;5101664;28;20058;-42
2021/01/12 10:16:24;;;;;;;1.30;0.60;;;2.40;81.80;;;2.56;68.43;97020.16;5100231;28;20050;-42
2021/01/12 10:18:52;;;;;;;0.97;0.50;;;2.40;82.00;;;2.56;68.95;97017.53;5094319;28;20047;-42
2021/01/12 10:21:20;;;;;;;0.83;0.60;;;2.40;82.20;;;2.58;68.53;97008.66;5101736;28;20109;-42
2021/01/12 10:23:48;;;;;;;0.37;0.30;;;2.40;82.20;;;2.61;68.82;97016.31;5101559;28;20055;-43
2021/01/12 10:26:17;;;;;;;1.03;0.50;;;2.40;82.10;;;2.62;68.38;97007.47;5101371;28;20243;-42
2021/01/12 10:28:47;;;;;;;1.00;0.60;;;2.40;82.00;;;2.64;68.37;97013.44;5101774;28;20051;-41
2021/01/12 10:31:16;;;;;;;2.63;0.60;;;2.50;81.90;;;2.66;68.59;97011.53;5099447;28;20364;-42
2021/01/12 10:33:44;;;;;;;0.83;0.50;;;2.50;82.10;;;2.64;68.85;97011.66;5092370;28;20392;-50
2021/01/12 10:36:17;;;;;;;0.60;0.60;;;2.50;82.30;;;2.59;69.34;97007.72;5098362;28;20058;-42
2021/01/12 10:38:46;;;;;;;1.13;0.80;;;2.40;82.60;;;2.62;69.23;97018.81;5098881;28;20052;-41